sensor_id;sensor_type;location;lat;lon;timestamp;pressure;altitude;pressure_sealevel;temperature;humidity
13553;BME280;6847;48.830;9.116;2023-02-03T00:26:42;99149.22;;;9.38;59.02
13553;BME280;6847;48.830;9.116;2023-02-03T00:29:08;99152.75;;;9.39;59.19
13553;BME280;6847;48.830;9.116;2023-02-03T00:31:37;99152.75;;;9.39;59.34
13553;BME280;6847;48.830;9.116;2023-02-03T00:34:26;99152.75;;;9.39;58.91
13553;BME280;6847;48.830;9.116;2023-02-03T00:36:57;99148.97;;;9.40;59.24
13553;BME280;6847;48.830;9.116;2023-02-03T00:39:27;99152.75;;;9.39;59.44
13553;BME280;6847;48.830;9.116;2023-02-03T00:58:38;99164.09;;;9.41;59.10
13553;BME280;6847;48.830;9.116;2023-02-03T01:01:05;99169.78;;;9.39;58.92
13553;BME280;6847;48.830;9.116;2023-02-03T01:03:33;99167.63;;;9.41;59.19
13553;BME280;6847;48.830;9.116;2023-02-03T01:06:07;99174.09;;;9.40;59.13
13553;BME280;6847;48.830;9.116;2023-02-03T01:08:54;99162.22;;;9.41;59.00
13553;BME280;6847;48.830;9.116;2023-02-03T01:11:22;99166.56;;;9.42;59.25
13553;BME280;6847;48.830;9.116;2023-02-03T01:16:39;99147.34;;;9.39;59.35
13553;BME280;6847;48.830;9.116;2023-02-03T01:27:21;99126.75;;;9.38;59.22
13553;BME280;6847;48.830;9.116;2023-02-03T01:29:56;99135.34;;;9.35;59.45
13553;BME280;6847;48.830;9.116;2023-02-03T01:32:27;99137.81;;;9.36;59.46
13553;BME280;6847;48.830;9.116;2023-02-03T01:34:56;99134.88;;;9.38;59.26
13553;BME280;6847;48.830;9.116;2023-02-03T01:37:28;99124.66;;;9.40;59.55
13553;BME280;6847;48.830;9.116;2023-02-03T01:40:00;99126.03;;;9.42;58.92
13553;BME280;6847;48.830;9.116;2023-02-03T01:42:31;99114.41;;;9.42;59.37
13553;BME280;6847;48.830;9.116;2023-02-03T01:44:58;99121.44;;;9.43;59.35
13553;BME280;6847;48.830;9.116;2023-02-03T01:47:28;99125.56;;;9.45;58.88
13553;BME280;6847;48.830;9.116;2023-02-03T01:50:03;99131.31;;;9.49;59.45
13553;BME280;6847;48.830;9.116;2023-02-03T01:52:32;99131.31;;;9.49;59.03
13553;BME280;6847;48.830;9.116;2023-02-03T01:55:01;99141.06;;;9.50;59.88
13553;BME280;6847;48.830;9.116;2023-02-03T01:57:31;99140.00;;;9.51;59.14
13553;BME280;6847;48.830;9.116;2023-02-03T02:00:11;99142.00;;;9.55;59.11
13553;BME280;6847;48.830;9.116;2023-02-03T02:02:41;99138.53;;;9.60;59.55
13553;BME280;6847;48.830;9.116;2023-02-03T02:05:11;99052.22;;;9.13;59.16
13553;BME280;6847;48.830;9.116;2023-02-03T02:07:42;99107.28;;;9.64;59.27
13553;BME280;6847;48.830;9.116;2023-02-03T02:10:10;99107.03;;;9.65;59.24
13553;BME280;6847;48.830;9.116;2023-02-03T02:12:38;99103.50;;;9.65;59.71
13553;BME280;6847;48.830;9.116;2023-02-03T02:15:06;99074.81;;;9.64;59.27
13553;BME280;6847;48.830;9.116;2023-02-03T02:20:29;99042.78;;;9.56;59.09
13553;BME280;6847;48.830;9.116;2023-02-03T02:25:53;99057.28;;;9.50;60.14
13553;BME280;6847;48.830;9.116;2023-02-03T02:31:27;99056.75;;;9.53;59.57
13553;BME280;6847;48.830;9.116;2023-02-03T02:33:55;99064.63;;;9.54;59.69
13553;BME280;6847;48.830;9.116;2023-02-03T02:36:26;99055.47;;;9.55;60.04
13553;BME280;6847;48.830;9.116;2023-02-03T02:38:57;99057.69;;;9.58;59.98
13553;BME280;6847;48.830;9.116;2023-02-03T02:41:27;99043.69;;;9.61;59.74
13553;BME280;6847;48.830;9.116;2023-02-03T02:43:59;99026.97;;;9.64;59.52
13553;BME280;6847;48.830;9.116;2023-02-03T02:46:31;99025.69;;;9.67;59.39
13553;BME280;6847;48.830;9.116;2023-02-03T02:49:00;99052.72;;;9.67;59.95
13553;BME280;6847;48.830;9.116;2023-02-03T02:51:30;99056.00;;;9.69;59.42
13553;BME280;6847;48.830;9.116;2023-02-03T02:53:59;99063.28;;;9.69;59.33
13553;BME280;6847;48.830;9.116;2023-02-03T02:56:28;99057.63;;;9.70;59.67
13553;BME280;6847;48.830;9.116;2023-02-03T02:58:59;99059.25;;;9.71;59.00
13553;BME280;6847;48.830;9.116;2023-02-03T03:01:32;99063.84;;;9.71;59.33
13553;BME280;6847;48.830;9.116;2023-02-03T03:04:02;99068.44;;;9.70;59.27
13553;BME280;6847;48.830;9.116;2023-02-03T03:06:31;99043.53;;;9.68;59.97
13553;BME280;6847;48.830;9.116;2023-02-03T03:08:59;99045.19;;;9.69;59.77
13553;BME280;6847;48.830;9.116;2023-02-03T03:11:29;99038.13;;;9.68;59.50
13553;BME280;6847;48.830;9.116;2023-02-03T03:13:57;99048.44;;;9.71;59.41
13553;BME280;6847;48.830;9.116;2023-02-03T03:16:26;99040.91;;;9.73;59.64
13553;BME280;6847;48.830;9.116;2023-02-03T03:18:55;99042.22;;;9.71;59.28
13553;BME280;6847;48.830;9.116;2023-02-03T03:21:27;99034.84;;;9.66;59.73
13553;BME280;6847;48.830;9.116;2023-02-03T03:23:56;99032.03;;;9.61;59.83
13553;BME280;6847;48.830;9.116;2023-02-03T03:26:26;99039.25;;;9.55;59.83
13553;BME280;6847;48.830;9.116;2023-02-03T03:28:59;99037.03;;;9.52;60.25
13553;BME280;6847;48.830;9.116;2023-02-03T03:31:34;99058.88;;;9.51;60.21
13553;BME280;6847;48.830;9.116;2023-02-03T03:34:24;99062.75;;;9.55;60.29
13553;BME280;6847;48.830;9.116;2023-02-03T03:36:52;99074.16;;;9.57;59.87
13553;BME280;6847;48.830;9.116;2023-02-03T03:39:23;99078.50;;;9.58;59.48
13553;BME280;6847;48.830;9.116;2023-02-03T03:41:59;99061.22;;;9.59;60.17
13553;BME280;6847;48.830;9.116;2023-02-03T03:44:38;99072.03;;;9.59;59.44
13553;BME280;6847;48.830;9.116;2023-02-03T03:47:09;99082.59;;;9.60;59.34
13553;BME280;6847;48.830;9.116;2023-02-03T03:49:39;99087.75;;;9.62;59.71
13553;BME280;6847;48.830;9.116;2023-02-03T03:52:09;99093.75;;;9.64;59.40
13553;BME280;6847;48.830;9.116;2023-02-03T03:54:37;99103.28;;;9.67;59.41
13553;BME280;6847;48.830;9.116;2023-02-03T03:57:07;99103.03;;;9.68;59.39
13553;BME280;6847;48.830;9.116;2023-02-03T03:59:39;99109.00;;;9.70;59.91
13553;BME280;6847;48.830;9.116;2023-02-03T04:02:08;99117.47;;;9.74;59.67
13553;BME280;6847;48.830;9.116;2023-02-03T04:04:36;99126.41;;;9.74;59.75
13553;BME280;6847;48.830;9.116;2023-02-03T04:07:08;99125.34;;;9.75;59.40
13553;BME280;6847;48.830;9.116;2023-02-03T04:09:36;99112.88;;;9.74;59.09
13553;BME280;6847;48.830;9.116;2023-02-03T04:12:04;99117.13;;;9.70;59.34
13553;BME280;6847;48.830;9.116;2023-02-03T04:14:32;99112.09;;;9.62;59.72
13553;BME280;6847;48.830;9.116;2023-02-03T04:16:59;99107.91;;;9.54;59.60
13553;BME280;6847;48.830;9.116;2023-02-03T04:19:26;99123.22;;;9.49;60.41
13553;BME280;6847;48.830;9.116;2023-02-03T04:21:56;99124.16;;;9.43;59.71
13553;BME280;6847;48.830;9.116;2023-02-03T04:24:24;99127.34;;;9.40;60.05
13553;BME280;6847;48.830;9.116;2023-02-03T04:26:51;99122.88;;;9.34;60.31
13553;BME280;6847;48.830;9.116;2023-02-03T04:29:19;99122.22;;;9.26;60.65
13553;BME280;6847;48.830;9.116;2023-02-03T04:31:47;99109.06;;;9.18;60.55
13553;BME280;6847;48.830;9.116;2023-02-03T04:34:15;99105.66;;;9.11;60.83
13553;BME280;6847;48.830;9.116;2023-02-03T04:36:46;99110.97;;;9.06;60.79
13553;BME280;6847;48.830;9.116;2023-02-03T04:39:14;99107.56;;;8.99;60.65
13553;BME280;6847;48.830;9.116;2023-02-03T04:41:43;99096.06;;;8.92;61.13
13553;BME280;6847;48.830;9.116;2023-02-03T04:44:09;99110.28;;;8.87;60.89
13553;BME280;6847;48.830;9.116;2023-02-03T04:46:42;99099.63;;;8.81;61.14
13553;BME280;6847;48.830;9.116;2023-02-03T04:49:09;99112.28;;;8.80;61.46
13553;BME280;6847;48.830;9.116;2023-02-03T04:51:39;99099.03;;;8.79;61.25
13553;BME280;6847;48.830;9.116;2023-02-03T04:54:08;99107.13;;;8.79;61.06
13553;BME280;6847;48.830;9.116;2023-02-03T04:56:35;99096.78;;;8.76;61.11
13553;BME280;6847;48.830;9.116;2023-02-03T04:59:07;99080.00;;;8.74;61.31
13553;BME280;6847;48.830;9.116;2023-02-03T05:01:35;99075.91;;;8.71;61.19
13553;BME280;6847;48.830;9.116;2023-02-03T05:04:01;99073.44;;;8.70;61.40
13553;BME280;6847;48.830;9.116;2023-02-03T05:06:28;99086.34;;;8.68;61.17
13553;BME280;6847;48.830;9.116;2023-02-03T05:08:56;99068.97;;;8.64;61.68
13553;BME280;6847;48.830;9.116;2023-02-03T05:11:24;99083.53;;;8.63;61.80
13553;BME280;6847;48.830;9.116;2023-02-03T05:13:51;99092.22;;;8.65;61.86
13553;BME280;6847;48.830;9.116;2023-02-03T05:16:19;99098.44;;;8.65;61.91
13553;BME280;6847;48.830;9.116;2023-02-03T05:18:49;99105.03;;;8.69;62.29
13553;BME280;6847;48.830;9.116;2023-02-03T05:21:18;99114.50;;;8.72;61.73
13553;BME280;6847;48.830;9.116;2023-02-03T05:23:45;99118.84;;;8.73;62.23
13553;BME280;6847;48.830;9.116;2023-02-03T05:26:12;99111.56;;;8.73;62.58
13553;BME280;6847;48.830;9.116;2023-02-03T05:28:40;99106.16;;;8.73;62.63
13553;BME280;6847;48.830;9.116;2023-02-03T05:31:06;99110.28;;;8.76;63.27
13553;BME280;6847;48.830;9.116;2023-02-03T05:33:37;99108.19;;;8.78;63.72
13553;BME280;6847;48.830;9.116;2023-02-03T05:36:06;99105.47;;;8.78;63.59
13553;BME280;6847;48.830;9.116;2023-02-03T05:38:35;99107.13;;;8.79;64.52
13553;BME280;6847;48.830;9.116;2023-02-03T05:41:03;99113.59;;;8.78;64.88
13553;BME280;6847;48.830;9.116;2023-02-03T05:43:47;99101.13;;;8.77;65.22
13553;BME280;6847;48.830;9.116;2023-02-03T05:46:14;99103.84;;;8.77;65.51
13553;BME280;6847;48.830;9.116;2023-02-03T05:48:42;99108.19;;;8.78;65.66
13553;BME280;6847;48.830;9.116;2023-02-03T05:51:09;99109.00;;;8.78;66.00
13553;BME280;6847;48.830;9.116;2023-02-03T05:53:37;99110.53;;;8.86;66.29
13553;BME280;6847;48.830;9.116;2023-02-03T05:56:03;99102.53;;;8.91;66.03
13553;BME280;6847;48.830;9.116;2023-02-03T05:58:30;99097.69;;;8.93;65.92
13553;BME280;6847;48.830;9.116;2023-02-03T06:00:58;99088.78;;;8.93;66.29
13553;BME280;6847;48.830;9.116;2023-02-03T06:03:24;99084.19;;;8.93;66.89
13553;BME280;6847;48.830;9.116;2023-02-03T06:05:52;99085.03;;;8.94;66.41
13553;BME280;6847;48.830;9.116;2023-02-03T06:08:19;99087.63;;;9.00;66.78
13553;BME280;6847;48.830;9.116;2023-02-03T06:10:55;99073.03;;;9.01;66.39
13553;BME280;6847;48.830;9.116;2023-02-03T06:13:22;99066.09;;;9.05;66.53
13553;BME280;6847;48.830;9.116;2023-02-03T06:15:49;99065.63;;;9.08;66.27
13553;BME280;6847;48.830;9.116;2023-02-03T06:18:15;99073.22;;;9.11;65.75
13553;BME280;6847;48.830;9.116;2023-02-03T06:20:44;99064.66;;;9.14;65.89
13553;BME280;6847;48.830;9.116;2023-02-03T06:23:15;99075.81;;;9.18;65.22
13553;BME280;6847;48.830;9.116;2023-02-03T06:25:44;99081.22;;;9.18;65.77
13553;BME280;6847;48.830;9.116;2023-02-03T06:28:10;99087.44;;;9.18;65.32
13553;BME280;6847;48.830;9.116;2023-02-03T06:30:37;99088.03;;;9.20;65.30
13553;BME280;6847;48.830;9.116;2023-02-03T06:33:04;99080.41;;;9.17;65.44
13553;BME280;6847;48.830;9.116;2023-02-03T06:35:32;99082.53;;;9.15;64.88
13553;BME280;6847;48.830;9.116;2023-02-03T06:37:58;99079.59;;;9.17;65.13
13553;BME280;6847;48.830;9.116;2023-02-03T06:40:26;99089.34;;;9.18;64.70
13553;BME280;6847;48.830;9.116;2023-02-03T06:42:53;99086.28;;;9.14;65.21
13553;BME280;6847;48.830;9.116;2023-02-03T06:45:20;99090.03;;;9.13;64.83
13553;BME280;6847;48.830;9.116;2023-02-03T06:47:49;99069.97;;;9.09;65.41
13553;BME280;6847;48.830;9.116;2023-02-03T06:50:16;99066.09;;;9.05;65.52
13553;BME280;6847;48.830;9.116;2023-02-03T06:52:43;99060.69;;;9.05;65.94
13553;BME280;6847;48.830;9.116;2023-02-03T06:55:10;99054.13;;;9.01;66.26
13553;BME280;6847;48.830;9.116;2023-02-03T06:57:43;99051.31;;;8.96;66.83
13553;BME280;6847;48.830;9.116;2023-02-03T07:00:12;99067.06;;;8.87;67.16
13553;BME280;6847;48.830;9.116;2023-02-03T07:02:40;99054.50;;;8.81;66.91
13553;BME280;6847;48.830;9.116;2023-02-03T07:05:08;99064.97;;;8.78;67.47
13553;BME280;6847;48.830;9.116;2023-02-03T07:07:35;99055.47;;;8.75;68.05
13553;BME280;6847;48.830;9.116;2023-02-03T07:10:04;99050.28;;;8.74;68.15
13553;BME280;6847;48.830;9.116;2023-02-03T07:12:32;99045.94;;;8.73;68.18
13553;BME280;6847;48.830;9.116;2023-02-03T07:15:02;99049.16;;;8.70;68.48
13553;BME280;6847;48.830;9.116;2023-02-03T07:17:30;99057.25;;;8.70;68.27
13553;BME280;6847;48.830;9.116;2023-02-03T07:19:59;99042.69;;;8.71;68.36
13553;BME280;6847;48.830;9.116;2023-02-03T07:22:26;99031.88;;;8.71;69.00
13553;BME280;6847;48.830;9.116;2023-02-03T07:24:53;99036.94;;;8.67;68.61
13553;BME280;6847;48.830;9.116;2023-02-03T07:27:20;99048.09;;;8.71;69.04
13553;BME280;6847;48.830;9.116;2023-02-03T07:29:47;99046.44;;;8.70;69.18
13553;BME280;6847;48.830;9.116;2023-02-03T07:32:16;99048.09;;;8.71;69.20
13553;BME280;6847;48.830;9.116;2023-02-03T07:34:43;99041.13;;;8.75;69.16
13553;BME280;6847;48.830;9.116;2023-02-03T07:37:10;99045.50;;;8.76;69.80
13553;BME280;6847;48.830;9.116;2023-02-03T07:39:36;99057.47;;;8.80;68.97
13553;BME280;6847;48.830;9.116;2023-02-03T07:42:06;99011.25;;;8.41;69.49
13553;BME280;6847;48.830;9.116;2023-02-03T07:44:34;99072.72;;;8.86;69.81
13553;BME280;6847;48.830;9.116;2023-02-03T07:47:01;99089.50;;;8.88;69.92
13553;BME280;6847;48.830;9.116;2023-02-03T07:49:34;99086.56;;;8.89;69.75
13553;BME280;6847;48.830;9.116;2023-02-03T07:52:04;99091.47;;;8.93;69.81
13553;BME280;6847;48.830;9.116;2023-02-03T07:54:35;99098.28;;;8.95;69.80
13553;BME280;6847;48.830;9.116;2023-02-03T07:57:02;99103.69;;;8.95;69.60
13553;BME280;6847;48.830;9.116;2023-02-03T07:59:28;99108.28;;;8.95;70.19
13553;BME280;6847;48.830;9.116;2023-02-03T08:01:55;99107.44;;;8.94;70.04
13553;BME280;6847;48.830;9.116;2023-02-03T08:04:23;99129.19;;;8.99;69.61
13553;BME280;6847;48.830;9.116;2023-02-03T08:06:54;99126.00;;;9.02;70.26
13553;BME280;6847;48.830;9.116;2023-02-03T08:09:28;99131.75;;;9.06;70.11
13553;BME280;6847;48.830;9.116;2023-02-03T08:11:54;99119.88;;;9.07;70.28
13553;BME280;6847;48.830;9.116;2023-02-03T08:14:21;99122.38;;;9.08;70.46
13553;BME280;6847;48.830;9.116;2023-02-03T08:16:50;99127.28;;;9.11;70.56
13553;BME280;6847;48.830;9.116;2023-02-03T08:19:17;99128.44;;;9.15;70.09
13553;BME280;6847;48.830;9.116;2023-02-03T08:21:44;99133.97;;;9.20;70.40
13553;BME280;6847;48.830;9.116;2023-02-03T08:24:13;99135.94;;;9.25;70.29
13553;BME280;6847;48.830;9.116;2023-02-03T08:26:43;99142.19;;;9.25;70.43
13553;BME280;6847;48.830;9.116;2023-02-03T08:29:09;99143.81;;;9.26;70.10
13553;BME280;6847;48.830;9.116;2023-02-03T08:31:36;99135.72;;;9.26;70.78
13553;BME280;6847;48.830;9.116;2023-02-03T08:34:03;99132.19;;;9.26;70.70
13553;BME280;6847;48.830;9.116;2023-02-03T08:36:31;99003.88;;;8.48;70.38
13553;BME280;6847;48.830;9.116;2023-02-03T08:39:03;99120.78;;;9.36;70.46
13553;BME280;6847;48.830;9.116;2023-02-03T08:41:32;99132.50;;;9.41;70.60
13553;BME280;6847;48.830;9.116;2023-02-03T08:43:59;99138.50;;;9.43;70.93
13553;BME280;6847;48.830;9.116;2023-02-03T08:46:30;99145.91;;;9.48;71.33
13553;BME280;6847;48.830;9.116;2023-02-03T08:48:57;99142.69;;;9.51;70.75
13553;BME280;6847;48.830;9.116;2023-02-03T08:51:26;99142.22;;;9.54;71.39
13553;BME280;6847;48.830;9.116;2023-02-03T08:54:10;99132.00;;;9.56;71.28
13553;BME280;6847;48.830;9.116;2023-02-03T08:56:38;99133.13;;;9.60;71.03
13553;BME280;6847;48.830;9.116;2023-02-03T08:59:06;99139.72;;;9.64;70.70
13553;BME280;6847;48.830;9.116;2023-02-03T09:01:32;99135.97;;;9.65;71.07
13553;BME280;6847;48.830;9.116;2023-02-03T09:04:02;99134.91;;;9.66;70.92
13553;BME280;6847;48.830;9.116;2023-02-03T09:06:33;99126.31;;;9.69;71.10
13553;BME280;6847;48.830;9.116;2023-02-03T09:09:00;99112.97;;;9.79;71.88
13553;BME280;6847;48.830;9.116;2023-02-03T09:11:28;99115.97;;;9.94;70.87
13553;BME280;6847;48.830;9.116;2023-02-03T09:13:56;99130.66;;;9.98;70.94
13553;BME280;6847;48.830;9.116;2023-02-03T09:16:23;99121.44;;;9.99;71.00
13553;BME280;6847;48.830;9.116;2023-02-03T09:18:50;99110.91;;;10.15;71.38
13553;BME280;6847;48.830;9.116;2023-02-03T09:21:18;99115.63;;;10.36;71.24
13553;BME280;6847;48.830;9.116;2023-02-03T09:23:45;99116.91;;;10.84;71.94
13553;BME280;6847;48.830;9.116;2023-02-03T09:26:13;99107.13;;;11.21;70.93
13553;BME280;6847;48.830;9.116;2023-02-03T09:28:41;99110.59;;;11.38;70.20
13553;BME280;6847;48.830;9.116;2023-02-03T09:31:12;99120.97;;;11.46;69.87
13553;BME280;6847;48.830;9.116;2023-02-03T09:33:42;99111.16;;;11.84;69.97
13553;BME280;6847;48.830;9.116;2023-02-03T09:36:09;99115.53;;;12.17;70.92
13553;BME280;6847;48.830;9.116;2023-02-03T09:38:36;99128.06;;;12.50;70.49
13553;BME280;6847;48.830;9.116;2023-02-03T09:41:05;99125.09;;;12.24;69.28
13553;BME280;6847;48.830;9.116;2023-02-03T09:43:39;99131.44;;;12.03;69.50
13553;BME280;6847;48.830;9.116;2023-02-03T09:49:41;99130.91;;;12.06;69.66
13553;BME280;6847;48.830;9.116;2023-02-03T09:52:12;99132.91;;;11.89;70.31
13553;BME280;6847;48.830;9.116;2023-02-03T09:54:40;99139.91;;;11.85;70.65
13553;BME280;6847;48.830;9.116;2023-02-03T09:57:11;99127.13;;;12.07;71.03
13553;BME280;6847;48.830;9.116;2023-02-03T09:59:39;99114.56;;;12.60;70.56
13553;BME280;6847;48.830;9.116;2023-02-03T10:02:11;99105.91;;;12.68;69.16
13553;BME280;6847;48.830;9.116;2023-02-03T10:04:46;99118.03;;;12.55;69.20
13553;BME280;6847;48.830;9.116;2023-02-03T10:07:17;99105.84;;;12.58;69.29
13553;BME280;6847;48.830;9.116;2023-02-03T10:09:52;99093.88;;;12.59;68.50
13553;BME280;6847;48.830;9.116;2023-02-03T10:12:29;99096.69;;;12.69;68.69
13553;BME280;6847;48.830;9.116;2023-02-03T10:15:06;99113.00;;;12.74;67.92
13553;BME280;6847;48.830;9.116;2023-02-03T10:17:42;99122.22;;;12.68;67.65
13553;BME280;6847;48.830;9.116;2023-02-03T10:20:14;99118.81;;;12.51;67.57
13553;BME280;6847;48.830;9.116;2023-02-03T10:22:43;99124.66;;;12.33;67.63
13553;BME280;6847;48.830;9.116;2023-02-03T10:25:15;99144.00;;;12.14;68.18
13553;BME280;6847;48.830;9.116;2023-02-03T10:27:45;99142.84;;;12.05;67.86
13553;BME280;6847;48.830;9.116;2023-02-03T10:30:16;99129.16;;;11.95;67.89
13553;BME280;6847;48.830;9.116;2023-02-03T10:32:44;99133.00;;;11.99;68.27
13553;BME280;6847;48.830;9.116;2023-02-03T10:35:11;99137.34;;;12.27;68.32
13553;BME280;6847;48.830;9.116;2023-02-03T10:37:43;99142.59;;;12.34;66.94
13553;BME280;6847;48.830;9.116;2023-02-03T10:40:14;99135.34;;;12.17;67.10
13553;BME280;6847;48.830;9.116;2023-02-03T10:42:42;99123.34;;;12.08;67.20
13553;BME280;6847;48.830;9.116;2023-02-03T10:45:27;99109.09;;;11.96;67.17
13553;BME280;6847;48.830;9.116;2023-02-03T10:47:55;99090.09;;;12.23;67.54
13553;BME280;6847;48.830;9.116;2023-02-03T10:50:22;99075.28;;;12.41;66.23
13553;BME280;6847;48.830;9.116;2023-02-03T10:52:58;99076.00;;;12.63;66.28
13553;BME280;6847;48.830;9.116;2023-02-03T10:55:44;99081.66;;;13.04;66.28
13553;BME280;6847;48.830;9.116;2023-02-03T10:58:13;99077.78;;;13.42;65.64
13553;BME280;6847;48.830;9.116;2023-02-03T11:00:41;99080.78;;;13.40;64.68
13553;BME280;6847;48.830;9.116;2023-02-03T11:03:22;99085.09;;;13.36;65.25
13553;BME280;6847;48.830;9.116;2023-02-03T11:06:06;99085.06;;;13.26;64.36
13553;BME280;6847;48.830;9.116;2023-02-03T11:08:37;99098.50;;;13.01;64.53
13553;BME280;6847;48.830;9.116;2023-02-03T11:11:06;99092.94;;;12.80;64.55
13553;BME280;6847;48.830;9.116;2023-02-03T11:13:34;99086.81;;;12.58;65.13
13553;BME280;6847;48.830;9.116;2023-02-03T11:16:03;99082.91;;;12.44;64.89
13553;BME280;6847;48.830;9.116;2023-02-03T11:18:40;99080.59;;;12.26;64.85
13553;BME280;6847;48.830;9.116;2023-02-03T11:21:08;99056.63;;;12.17;64.80
13553;BME280;6847;48.830;9.116;2023-02-03T11:23:38;99074.88;;;12.22;64.82
13553;BME280;6847;48.830;9.116;2023-02-03T11:26:10;99060.72;;;12.20;65.17
13553;BME280;6847;48.830;9.116;2023-02-03T11:28:42;99060.16;;;12.18;64.43
13553;BME280;6847;48.830;9.116;2023-02-03T11:31:14;99051.69;;;12.14;64.91
13553;BME280;6847;48.830;9.116;2023-02-03T11:33:45;99050.59;;;12.10;64.42
13553;BME280;6847;48.830;9.116;2023-02-03T11:36:11;99050.69;;;12.20;64.18
13553;BME280;6847;48.830;9.116;2023-02-03T11:38:46;99046.34;;;12.24;63.83
13553;BME280;6847;48.830;9.116;2023-02-03T11:41:14;99064.19;;;12.15;64.09
13553;BME280;6847;48.830;9.116;2023-02-03T11:46:44;99043.44;;;11.99;64.37
13553;BME280;6847;48.830;9.116;2023-02-03T11:49:18;99031.00;;;12.03;64.01
13553;BME280;6847;48.830;9.116;2023-02-03T11:51:54;99035.03;;;12.01;64.25
13553;BME280;6847;48.830;9.116;2023-02-03T11:54:29;99022.78;;;11.93;64.04
13553;BME280;6847;48.830;9.116;2023-02-03T11:57:04;99021.63;;;11.89;63.67
13553;BME280;6847;48.830;9.116;2023-02-03T11:59:43;99018.94;;;11.89;63.72
13553;BME280;6847;48.830;9.116;2023-02-03T12:05:22;99022.16;;;11.86;63.23
13553;BME280;6847;48.830;9.116;2023-02-03T12:08:04;99020.50;;;11.85;63.63
13553;BME280;6847;48.830;9.116;2023-02-03T12:10:48;99011.28;;;11.86;63.13
13553;BME280;6847;48.830;9.116;2023-02-03T12:13:24;99029.75;;;11.84;63.58
13553;BME280;6847;48.830;9.116;2023-02-03T12:15:57;99029.19;;;11.82;63.29
13553;BME280;6847;48.830;9.116;2023-02-03T12:18:31;99037.31;;;11.82;62.61
13553;BME280;6847;48.830;9.116;2023-02-03T12:21:11;99035.63;;;11.76;63.25
13553;BME280;6847;48.830;9.116;2023-02-03T12:23:45;99023.06;;;11.70;63.17
13553;BME280;6847;48.830;9.116;2023-02-03T12:26:23;99045.78;;;11.64;62.80
13553;BME280;6847;48.830;9.116;2023-02-03T12:28:55;99041.91;;;11.55;62.61
13553;BME280;6847;48.830;9.116;2023-02-03T12:31:28;99038.63;;;11.53;62.33
13553;BME280;6847;48.830;9.116;2023-02-03T12:34:03;99031.31;;;11.53;62.86
13553;BME280;6847;48.830;9.116;2023-02-03T12:36:34;99020.22;;;11.55;62.77
13553;BME280;6847;48.830;9.116;2023-02-03T12:39:05;99020.22;;;11.55;62.37
13553;BME280;6847;48.830;9.116;2023-02-03T12:41:38;99014.47;;;11.51;62.56
13553;BME280;6847;48.830;9.116;2023-02-03T12:44:07;99005.50;;;11.50;62.33
13553;BME280;6847;48.830;9.116;2023-02-03T12:46:42;99014.78;;;11.55;62.14
13553;BME280;6847;48.830;9.116;2023-02-03T12:49:12;98988.16;;;11.52;62.28
13553;BME280;6847;48.830;9.116;2023-02-03T12:51:42;98989.50;;;11.49;62.21
13553;BME280;6847;48.830;9.116;2023-02-03T12:54:31;98971.28;;;11.44;62.16
13553;BME280;6847;48.830;9.116;2023-02-03T12:57:06;98946.81;;;11.39;62.46
13553;BME280;6847;48.830;9.116;2023-02-03T12:59:36;98932.19;;;11.40;62.03
13553;BME280;6847;48.830;9.116;2023-02-03T13:02:08;98953.38;;;11.43;62.53
13553;BME280;6847;48.830;9.116;2023-02-03T13:04:40;98955.31;;;11.48;62.29
13553;BME280;6847;48.830;9.116;2023-02-03T13:07:11;98939.34;;;11.52;61.96
13553;BME280;6847;48.830;9.116;2023-02-03T13:09:43;98941.00;;;11.53;61.55
13553;BME280;6847;48.830;9.116;2023-02-03T13:12:25;98924.47;;;11.54;61.71
13553;BME280;6847;48.830;9.116;2023-02-03T13:14:56;98920.72;;;11.60;62.29
13553;BME280;6847;48.830;9.116;2023-02-03T13:17:26;98919.38;;;11.63;61.48
13553;BME280;6847;48.830;9.116;2023-02-03T13:19:57;98925.63;;;11.63;60.90
13553;BME280;6847;48.830;9.116;2023-02-03T13:22:25;98924.56;;;11.64;61.33
13553;BME280;6847;48.830;9.116;2023-02-03T13:24:52;98933.75;;;11.63;61.19
13553;BME280;6847;48.830;9.116;2023-02-03T13:27:38;98932.38;;;11.61;61.70
13553;BME280;6847;48.830;9.116;2023-02-03T13:30:14;98920.41;;;11.57;61.28
13553;BME280;6847;48.830;9.116;2023-02-03T13:32:51;98906.81;;;11.52;61.57
13553;BME280;6847;48.830;9.116;2023-02-03T13:35:37;98921.94;;;11.47;61.20
13553;BME280;6847;48.830;9.116;2023-02-03T13:38:13;98906.22;;;11.44;61.12
13553;BME280;6847;48.830;9.116;2023-02-03T13:40:49;98894.22;;;11.40;61.24
13553;BME280;6847;48.830;9.116;2023-02-03T13:43:21;98905.06;;;11.40;61.35
13553;BME280;6847;48.830;9.116;2023-02-03T13:45:51;98924.63;;;11.42;60.60
13553;BME280;6847;48.830;9.116;2023-02-03T13:48:18;98899.97;;;11.44;61.02
13553;BME280;6847;48.830;9.116;2023-02-03T13:50:50;98905.69;;;11.47;61.37
13553;BME280;6847;48.830;9.116;2023-02-03T13:53:27;98904.03;;;11.46;60.46
13553;BME280;6847;48.830;9.116;2023-02-03T13:55:59;98890.22;;;11.48;60.93
13553;BME280;6847;48.830;9.116;2023-02-03T13:58:32;98904.34;;;11.50;61.18
13553;BME280;6847;48.830;9.116;2023-02-03T14:01:05;98904.34;;;11.50;60.74
13553;BME280;6847;48.830;9.116;2023-02-03T14:03:45;98909.50;;;11.52;60.53
13553;BME280;6847;48.830;9.116;2023-02-03T14:08:58;98901.31;;;11.46;61.23
13553;BME280;6847;48.830;9.116;2023-02-03T14:11:41;98910.28;;;11.47;60.87
13553;BME280;6847;48.830;9.116;2023-02-03T14:16:55;98917.31;;;11.43;60.76
13553;BME280;6847;48.830;9.116;2023-02-03T14:22:03;98924.03;;;11.35;60.13
13553;BME280;6847;48.830;9.116;2023-02-03T14:24:32;98916.16;;;11.34;60.63
13553;BME280;6847;48.830;9.116;2023-02-03T14:27:00;98928.31;;;11.31;60.21
13553;BME280;6847;48.830;9.116;2023-02-03T14:29:30;98908.75;;;11.29;60.97
13553;BME280;6847;48.830;9.116;2023-02-03T14:32:01;98924.53;;;11.32;60.14
13553;BME280;6847;48.830;9.116;2023-02-03T14:34:29;98910.41;;;11.30;60.36
13553;BME280;6847;48.830;9.116;2023-02-03T14:36:57;98916.66;;;11.31;60.44
13553;BME280;6847;48.830;9.116;2023-02-03T14:45:27;98931.53;;;11.28;61.43
13553;BME280;6847;48.830;9.116;2023-02-03T14:48:03;98928.81;;;11.28;61.06
13553;BME280;6847;48.830;9.116;2023-02-03T14:50:42;98923.41;;;11.28;60.45
13553;BME280;6847;48.830;9.116;2023-02-03T14:56:02;98914.09;;;11.19;60.07
13553;BME280;6847;48.830;9.116;2023-02-03T14:58:40;98923.28;;;11.18;60.48
13553;BME280;6847;48.830;9.116;2023-02-03T15:01:11;98925.19;;;11.18;60.36
13553;BME280;6847;48.830;9.116;2023-02-03T15:06:39;98934.13;;;11.18;60.43